Time,TemperatureF,DewpointF,PressureIn,WindDirection,WindDirectionDegrees,WindSpeedMPH,WindSpeedGustMPH,Humidity,HourlyPrecipIn,Conditions,Clouds,dailyrainin,SoftwareType,DateUTC
2013-02-23 00:03:00,35.8,34.0,29.84,ENE,75,1.0,4.0,93,0.03,,BKN120,-99.99,VWS V12.07,2013-02-23 08:03:00,
2013-02-23 01:03:00,35.9,33.8,29.86,NE,54,2.0,5.0,92,0.02,,OVC080,-99.99,VWS V12.07,2013-02-23 09:03:00,
2013-02-23 02:03:00,35.9,33.8,29.88,NE,47,3.0,3.0,92,0.02,,OVC100,-99.99,VWS V12.07,2013-02-23 10:03:00,
2013-02-23 03:03:00,35.9,33.5,29.88,SW,224,0.0,2.0,91,0.02,,OVC065,-99.99,VWS V12.07,2013-02-23 11:03:00,
2013-02-23 04:03:00,36.5,34.1,29.91,NNE,21,0.0,1.0,91,0.02,,OVC065,-99.99,VWS V12.07,2013-02-23 12:03:00,
2013-02-23 05:03:00,36.0,33.9,29.94,ENE,71,2.0,3.0,92,0.05, -RA,-RA,-99.99,VWS V12.07,2013-02-23 13:03:00,
2013-02-23 06:03:00,36.0,34.2,29.98,ENE,65,0.0,2.0,93,0.05, -RA,-RA,-99.99,VWS V12.07,2013-02-23 14:03:00,
2013-02-23 07:03:00,36.5,34.7,30.02,SW,230,0.0,1.0,93,0.04, -RA,-RA,-99.99,VWS V12.07,2013-02-23 15:03:00,
2013-02-23 08:03:00,37.0,35.2,30.05,South,172,1.0,4.0,93,0.04, -RA,-RA,-99.99,VWS V12.07,2013-02-23 16:03:00,
2013-02-23 09:03:00,37.5,35.7,30.09,South,185,0.0,0.0,93,0.04, -RA,-RA,-99.99,VWS V12.07,2013-02-23 17:03:00,
2013-02-23 10:03:00,38.0,36.2,30.11,SSW,203,0.0,0.0,93,0.06,,OVC060,-99.99,VWS V12.07,2013-02-23 18:03:00,
2013-02-23 11:03:00,39.5,37.7,30.13,WSW,246,0.0,7.0,93,0.05,,OVC043,-99.99,VWS V12.07,2013-02-23 19:03:00,
2013-02-23 12:03:00,40.8,38.1,30.14,WSW,241,5.0,9.0,90,0.03,,OVC065,-99.99,VWS V12.07,2013-02-23 20:03:00,
2013-02-23 13:03:00,42.6,37.8,30.15,West,263,1.0,6.0,83,0.06,,BKN060,-99.99,VWS V12.07,2013-02-23 21:03:00,
2013-02-23 14:03:00,42.9,36.5,30.17,NW,308,2.0,6.0,78,0.03,,OVC060,-99.99,VWS V12.07,2013-02-23 22:03:00,
2013-02-23 15:03:00,43.6,33.8,30.19,West,271,5.0,8.0,68,0.02,,OVC060,-99.99,VWS V12.07,2013-02-23 23:03:00,
2013-02-23 16:03:00,44.1,34.2,30.21,WSW,257,1.0,6.0,68,0.01,,OVC075,-99.99,VWS V12.07,2013-02-24 00:03:00,
2013-02-23 17:03:00,42.5,35.5,30.23,NNW,337,0.0,0.0,76,0.01,,OVC080,-99.99,VWS V12.07,2013-02-24 01:03:00,
2013-02-23 18:03:00,40.8,34.2,30.26,WSW,251,0.0,0.0,77,0.00,,OVC075,-99.99,VWS V12.07,2013-02-24 02:03:00,
2013-02-23 19:03:00,38.6,34.8,30.28,NE,34,0.0,3.0,86,0.00,,SCT055,-99.99,VWS V12.07,2013-02-24 03:03:00,
2013-02-23 20:03:00,38.0,34.2,30.31,NE,34,0.0,1.0,86,0.00,,BKN060,-99.99,VWS V12.07,2013-02-24 04:03:00,
2013-02-23 21:03:00,37.8,34.3,30.31,NE,34,0.0,1.0,87,0.00,,OVC060,-99.99,VWS V12.07,2013-02-24 05:03:00,
2013-02-23 22:03:00,37.6,33.5,30.32,ENE,64,2.0,2.0,85,0.00,,BKN065,-99.99,VWS V12.07,2013-02-24 06:03:00,
2013-02-23 23:03:00,37.0,34.1,30.33,ENE,64,0.0,1.0,89,0.00,,SCT040,-99.99,VWS V12.07,2013-02-24 07:03:00,